createdAt,value
2022-09-09T00:02:57.363Z,10.7
2022-09-09T00:07:56.969Z,11.0
2022-09-09T00:12:56.941Z,11.0
2022-09-09T00:17:57.237Z,11.4
2022-09-09T00:22:57.333Z,11.8
2022-09-09T00:27:56.926Z,12.1
2022-09-09T00:32:56.946Z,13.1
2022-09-09T00:37:57.393Z,12.6
2022-09-09T00:42:57.060Z,13.2
2022-09-09T00:47:56.864Z,13.9
2022-09-09T00:52:57.155Z,13.1
2022-09-09T00:57:56.954Z,14.5
2022-09-09T01:02:57.002Z,14.4
2022-09-09T01:07:58.428Z,14.4
2022-09-09T01:12:56.911Z,14.8
2022-09-09T01:17:56.941Z,14.3
2022-09-09T01:22:57.165Z,16.6
2022-09-09T01:27:56.805Z,18.5
2022-09-09T01:32:56.882Z,18.4
2022-09-09T01:37:57.069Z,18.5
2022-09-09T01:42:56.847Z,21.4
2022-09-09T01:47:56.906Z,18.6
2022-09-09T01:52:57.079Z,18.1
2022-09-09T01:57:56.906Z,16.9
2022-09-09T02:02:56.844Z,16.7
2022-09-09T02:07:57.076Z,17.4
2022-09-09T02:12:56.731Z,18.4
2022-09-09T02:17:56.813Z,18.6
2022-09-09T02:22:57.023Z,19.9
2022-09-09T02:27:56.836Z,22.2
2022-09-09T02:32:56.677Z,21.9
2022-09-09T02:37:56.780Z,23.2
2022-09-09T02:42:56.993Z,22.4
2022-09-09T02:47:56.662Z,21.9
2022-09-09T02:52:56.803Z,23.1
2022-09-09T02:57:56.956Z,25.9
2022-09-09T03:02:56.733Z,25.9
2022-09-09T03:07:56.667Z,26.0
2022-09-09T03:12:56.950Z,26.4
2022-09-09T03:17:56.736Z,24.3
2022-09-09T03:22:56.738Z,23.0
2022-09-09T03:27:56.591Z,24.4
2022-09-09T03:32:56.759Z,23.7
2022-09-09T03:37:56.720Z,22.4
2022-09-09T03:42:56.595Z,22.3
2022-09-09T03:47:56.707Z,22.5
2022-09-09T03:52:56.653Z,21.6
2022-09-09T03:57:56.805Z,21.9
2022-09-09T04:02:56.624Z,20.8
2022-09-09T04:07:56.662Z,23.2
2022-09-09T04:12:56.838Z,21.0
2022-09-09T04:17:56.780Z,20.4
2022-09-09T04:22:56.501Z,20.9
2022-09-09T04:27:56.836Z,20.2
2022-09-09T04:32:57.225Z,21.3
2022-09-09T04:37:56.679Z,21.6
2022-09-09T04:42:57.111Z,20.8
2022-09-09T04:47:56.570Z,21.7
2022-09-09T04:52:56.576Z,22.4
2022-09-09T04:57:57.207Z,20.9
2022-09-09T05:02:57.352Z,23.8
2022-09-09T05:07:56.467Z,24.4
2022-09-09T05:12:57.012Z,24.4
2022-09-09T05:17:56.584Z,24.7
2022-09-09T05:22:56.476Z,24.2
2022-09-09T05:27:56.703Z,22.5
2022-09-09T05:32:56.727Z,24.5
2022-09-09T05:37:56.475Z,25.8
2022-09-09T05:42:56.902Z,24.1
2022-09-09T05:47:56.510Z,24.3
2022-09-09T05:52:56.548Z,28.1
2022-09-09T05:57:56.915Z,29.9
2022-09-09T06:02:56.574Z,34.1
2022-09-09T06:07:56.408Z,35.6
2022-09-09T06:12:56.606Z,35.4
2022-09-09T06:17:56.405Z,33.6
2022-09-09T06:22:56.364Z,35.4
2022-09-09T06:27:56.594Z,36.4
2022-09-09T06:32:56.377Z,34.0
2022-09-09T06:37:56.400Z,30.8
2022-09-09T06:42:56.674Z,33.6
2022-09-09T06:47:56.642Z,33.5
2022-09-09T06:52:56.373Z,30.0
2022-09-09T06:57:56.272Z,30.2
2022-09-09T07:02:56.330Z,29.6
2022-09-09T07:07:56.351Z,28.0
2022-09-09T07:12:56.467Z,24.6
2022-09-09T07:17:56.359Z,21.4
2022-09-09T07:22:56.234Z,19.5
2022-09-09T07:27:56.724Z,15.2
2022-09-09T07:32:56.441Z,13.9
2022-09-09T07:37:56.450Z,12.9
2022-09-09T07:42:56.277Z,13.4
2022-09-09T07:47:56.282Z,21.9
2022-09-09T07:52:57.653Z,12.1
2022-09-09T07:57:56.438Z,9.6
2022-09-09T08:02:56.266Z,10.4
2022-09-09T08:07:56.261Z,9.4
2022-09-09T08:13:15.252Z,10.6
2022-09-09T08:17:56.388Z,8.8
2022-09-09T08:22:56.540Z,8.1
2022-09-09T08:27:56.646Z,7.8
2022-09-09T08:32:56.294Z,7.6
2022-09-09T08:37:56.292Z,6.8
2022-09-09T08:42:56.392Z,5.5
2022-09-09T08:47:56.468Z,5.7
2022-09-09T08:52:56.182Z,5.0
2022-09-09T08:57:56.265Z,3.5
2022-09-09T09:02:56.287Z,3.7
2022-09-09T09:07:56.274Z,3.3
2022-09-09T09:12:56.481Z,3.3
2022-09-09T09:17:56.286Z,2.2
2022-09-09T09:22:56.399Z,1.8
2022-09-09T09:27:56.811Z,2.4
2022-09-09T09:32:57.486Z,2.4
2022-09-09T09:42:56.193Z,2.4
2022-09-09T09:48:01.258Z,1.7
2022-09-09T09:52:56.192Z,1.9
2022-09-09T09:57:57.463Z,1.9
2022-09-09T10:02:56.644Z,1.9
2022-09-09T10:07:56.329Z,2.0
2022-09-09T10:12:56.243Z,2.1
2022-09-09T10:17:56.236Z,1.8
2022-09-09T10:22:56.310Z,1.6
2022-09-09T10:27:59.733Z,1.8
2022-09-09T10:32:56.282Z,1.7
2022-09-09T10:37:56.628Z,3.2
2022-09-09T10:42:56.300Z,2.8
2022-09-09T10:47:56.288Z,4.5
2022-09-09T10:52:56.099Z,2.1
2022-09-09T10:57:56.675Z,2.2
2022-09-09T11:02:56.119Z,2.3
2022-09-09T11:07:56.146Z,3.0
2022-09-09T11:12:56.475Z,2.6
2022-09-09T11:17:56.077Z,2.0
2022-09-09T11:22:56.149Z,1.8
2022-09-09T11:27:56.513Z,1.9
2022-09-09T11:32:56.373Z,2.1
2022-09-09T11:37:56.141Z,2.1
2022-09-09T11:42:56.410Z,4.1
2022-09-09T11:47:56.073Z,2.4
2022-09-09T11:52:56.137Z,2.3
2022-09-09T11:57:56.165Z,2.5
2022-09-09T12:02:56.561Z,3.1
2022-09-09T12:07:56.146Z,2.6
2022-09-09T12:12:56.009Z,2.5
2022-09-09T12:18:00.165Z,2.7
2022-09-09T12:22:56.070Z,2.7
2022-09-09T12:27:56.084Z,2.4
2022-09-09T12:32:55.947Z,3.0
2022-09-09T12:37:56.044Z,3.1
2022-09-09T12:42:56.269Z,2.9
2022-09-09T12:47:56.260Z,2.9
2022-09-09T12:57:56.409Z,2.4
2022-09-09T13:02:55.967Z,2.1
2022-09-09T13:07:56.203Z,2.4
2022-09-09T13:12:55.911Z,2.8
2022-09-09T13:17:57.455Z,2.6
2022-09-09T13:22:57.833Z,2.7
2022-09-09T13:27:55.864Z,2.2
2022-09-09T13:32:55.929Z,2.0
2022-09-09T13:37:56.576Z,2.7
2022-09-09T13:42:57.388Z,2.0
2022-09-09T13:47:56.495Z,3.2
2022-09-09T13:52:55.907Z,2.2
2022-09-09T13:57:55.839Z,2.2
2022-09-09T14:02:56.048Z,2.4
2022-09-09T14:07:55.922Z,2.2
2022-09-09T14:12:55.855Z,2.0
2022-09-09T14:17:56.097Z,3.2
2022-09-09T14:22:55.867Z,2.5
2022-09-09T14:27:55.944Z,2.6
2022-09-09T14:32:56.041Z,2.1
2022-09-09T14:37:55.909Z,2.2
2022-09-09T14:42:55.906Z,6.0
2022-09-09T14:47:55.668Z,3.2
2022-09-09T14:52:55.838Z,2.5
2022-09-09T14:57:55.812Z,2.7
2022-09-09T15:02:56.158Z,2.2
2022-09-09T15:07:55.779Z,2.4
2022-09-09T15:12:55.865Z,2.2
2022-09-09T15:17:55.991Z,3.0
2022-09-09T15:22:55.802Z,2.6
2022-09-09T15:27:55.641Z,2.5
2022-09-09T15:32:55.957Z,1.8
2022-09-09T15:37:55.771Z,2.3
2022-09-09T15:42:55.866Z,2.3
2022-09-09T15:47:59.901Z,2.4
2022-09-09T15:52:58.684Z,2.5
2022-09-09T15:57:58.820Z,2.4
2022-09-09T16:02:58.782Z,2.1
2022-09-09T16:07:58.712Z,2.1
2022-09-09T16:12:58.878Z,2.4
2022-09-09T16:17:58.767Z,2.2
2022-09-09T16:22:58.735Z,2.3
2022-09-09T16:27:58.635Z,2.0
2022-09-09T16:32:58.911Z,2.4
2022-09-09T16:37:58.741Z,2.1
2022-09-09T16:42:58.759Z,2.1
2022-09-09T16:48:00.136Z,2.2
2022-09-09T16:52:58.615Z,2.2
2022-09-09T16:57:58.656Z,2.3
2022-09-09T17:02:58.660Z,2.4
2022-09-09T17:07:58.593Z,3.2
2022-09-09T17:12:58.581Z,2.4
2022-09-09T17:17:58.870Z,3.4
2022-09-09T17:22:58.768Z,3.1
2022-09-09T17:27:58.553Z,2.2
2022-09-09T17:32:58.862Z,3.1
2022-09-09T17:37:58.693Z,3.1
2022-09-09T17:42:58.752Z,3.2
2022-09-09T17:47:58.848Z,3.3
2022-09-09T17:52:58.601Z,3.2
2022-09-09T17:57:59.789Z,4.1
2022-09-09T18:02:58.652Z,3.5
2022-09-09T18:07:59.037Z,2.5
2022-09-09T18:12:58.635Z,3.0
2022-09-09T18:17:58.538Z,4.0
2022-09-09T18:22:58.459Z,3.8
2022-09-09T18:27:59.283Z,4.4
2022-09-09T18:32:58.686Z,4.8
2022-09-09T18:37:58.614Z,4.9
2022-09-09T18:42:58.521Z,5.3
2022-09-09T18:47:58.718Z,5.8
2022-09-09T18:52:58.454Z,5.7
2022-09-09T18:57:58.582Z,6.1
2022-09-09T19:02:58.307Z,6.5
2022-09-09T19:07:58.443Z,6.8
2022-09-09T19:12:58.485Z,8.5
2022-09-09T19:18:00.785Z,8.1
2022-09-09T19:22:58.350Z,6.0
2022-09-09T19:27:58.402Z,4.8
2022-09-09T19:32:58.474Z,5.1
2022-09-09T19:37:58.398Z,6.6
2022-09-09T19:42:58.245Z,6.6
2022-09-09T19:47:58.685Z,6.2
2022-09-09T19:52:58.399Z,6.1
2022-09-09T19:57:58.339Z,6.6
2022-09-09T20:03:18.228Z,6.7
2022-09-09T20:07:59.076Z,6.2
2022-09-09T20:12:58.302Z,6.1
2022-09-09T20:17:58.292Z,6.0
2022-09-09T20:22:58.259Z,9.5
2022-09-09T20:27:58.279Z,11.9
2022-09-09T20:32:58.556Z,7.0
2022-09-09T20:37:58.378Z,6.5
2022-09-09T20:42:58.204Z,7.1
2022-09-09T20:47:59.743Z,7.1
2022-09-09T20:52:58.291Z,6.9
2022-09-09T20:57:58.169Z,8.4
2022-09-09T21:02:58.257Z,7.8
2022-09-09T21:07:58.173Z,7.2
2022-09-09T21:12:58.543Z,6.8
2022-09-09T21:17:58.282Z,8.8
2022-09-09T21:22:58.119Z,7.6
2022-09-09T21:27:58.429Z,6.9
2022-09-09T21:32:58.168Z,6.9
2022-09-09T21:37:58.210Z,7.2
2022-09-09T21:42:58.313Z,9.1
2022-09-09T21:47:58.133Z,7.8
2022-09-09T21:52:58.158Z,6.5
2022-09-09T21:57:58.314Z,7.9
2022-09-09T22:02:58.105Z,6.8
2022-09-09T22:07:58.083Z,8.2
2022-09-09T22:12:58.325Z,10.0
2022-09-09T22:17:58.064Z,7.6
2022-09-09T22:22:58.010Z,7.1
2022-09-09T22:27:58.261Z,6.6
2022-09-09T22:32:58.059Z,7.0
2022-09-09T22:37:57.962Z,7.8
2022-09-09T22:42:58.146Z,8.0
2022-09-09T22:47:58.014Z,6.9
2022-09-09T22:52:59.498Z,7.0
2022-09-09T22:58:00.585Z,6.8
2022-09-09T23:02:58.402Z,7.7
2022-09-09T23:07:58.049Z,7.5
2022-09-09T23:12:58.088Z,8.4
2022-09-09T23:17:57.992Z,8.1
2022-09-09T23:22:58.171Z,8.5
2022-09-09T23:27:57.909Z,8.5
2022-09-09T23:32:58.038Z,9.2
2022-09-09T23:37:58.147Z,8.4
2022-09-09T23:42:58.045Z,8.8
2022-09-09T23:47:58.029Z,8.7
2022-09-09T23:52:57.869Z,9.1
2022-09-09T23:57:58.043Z,8.3
